sensor_id;sensor_type;location;lat;lon;timestamp;pressure;altitude;pressure_sealevel;temperature;humidity
11880;BME280;5999;43.256;27.816;2022-09-09T00:02:17;100596.56;;;20.02;100.00
11880;BME280;5999;43.256;27.816;2022-09-09T00:04:49;100604.81;;;20.11;100.00
11880;BME280;5999;43.256;27.816;2022-09-09T00:07:25;100596.66;;;20.01;100.00
11880;BME280;5999;43.256;27.816;2022-09-09T00:10:05;100586.34;;;19.74;100.00
11880;BME280;5999;43.256;27.816;2022-09-09T00:12:41;100574.78;;;19.96;100.00
11880;BME280;5999;43.256;27.816;2022-09-09T00:15:17;100575.75;;;20.06;100.00
11880;BME280;5999;43.256;27.816;2022-09-09T00:17:50;100584.50;;;20.08;100.00
11880;BME280;5999;43.256;27.816;2022-09-09T00:20:27;100588.03;;;20.20;100.00
11880;BME280;5999;43.256;27.816;2022-09-09T00:22:59;100576.22;;;20.22;100.00
11880;BME280;5999;43.256;27.816;2022-09-09T00:25:32;100585.13;;;20.12;100.00
11880;BME280;5999;43.256;27.816;2022-09-09T00:28:04;100579.78;;;20.12;100.00
11880;BME280;5999;43.256;27.816;2022-09-09T00:30:41;100574.31;;;20.13;100.00
11880;BME280;5999;43.256;27.816;2022-09-09T00:33:12;100577.94;;;20.12;100.00
11880;BME280;5999;43.256;27.816;2022-09-09T00:35:45;100581.59;;;20.11;100.00
11880;BME280;5999;43.256;27.816;2022-09-09T00:38:15;100577.47;;;20.07;100.00
11880;BME280;5999;43.256;27.816;2022-09-09T00:40:50;100570.69;;;19.80;100.00
11880;BME280;5999;43.256;27.816;2022-09-09T00:43:27;100567.28;;;19.78;100.00
11880;BME280;5999;43.256;27.816;2022-09-09T00:46:17;100573.34;;;19.92;100.00
11880;BME280;5999;43.256;27.816;2022-09-09T00:48:55;100570.06;;;19.88;100.00
11880;BME280;5999;43.256;27.816;2022-09-09T00:51:33;100559.31;;;19.65;100.00
11880;BME280;5999;43.256;27.816;2022-09-09T00:54:31;100553.97;;;19.65;100.00
11880;BME280;5999;43.256;27.816;2022-09-09T00:57:12;100563.13;;;19.85;100.00
11880;BME280;5999;43.256;27.816;2022-09-09T00:59:47;100563.03;;;19.87;100.00
11880;BME280;5999;43.256;27.816;2022-09-09T01:02:20;100567.50;;;19.75;100.00
11880;BME280;5999;43.256;27.816;2022-09-09T01:04:52;100568.97;;;19.79;100.00
11880;BME280;5999;43.256;27.816;2022-09-09T01:07:19;100567.50;;;19.75;100.00
11880;BME280;5999;43.256;27.816;2022-09-09T01:09:52;100565.34;;;19.80;100.00
11880;BME280;5999;43.256;27.816;2022-09-09T01:12:28;100566.28;;;19.79;100.00
11880;BME280;5999;43.256;27.816;2022-09-09T01:15:03;100572.75;;;19.77;100.00
11880;BME280;5999;43.256;27.816;2022-09-09T01:17:44;100577.22;;;19.76;100.00
11880;BME280;5999;43.256;27.816;2022-09-09T01:20:15;100589.31;;;19.69;100.00
11880;BME280;5999;43.256;27.816;2022-09-09T01:22:57;100587.13;;;19.63;100.00
11880;BME280;5999;43.256;27.816;2022-09-09T01:26:07;100581.19;;;19.48;100.00
11880;BME280;5999;43.256;27.816;2022-09-09T01:28:37;100578.16;;;19.64;100.00
11880;BME280;5999;43.256;27.816;2022-09-09T01:31:05;100592.06;;;19.45;100.00
11880;BME280;5999;43.256;27.816;2022-09-09T01:33:33;100594.41;;;19.61;100.00
11880;BME280;5999;43.256;27.816;2022-09-09T01:36:02;100596.88;;;19.64;100.00
11880;BME280;5999;43.256;27.816;2022-09-09T01:38:33;100596.38;;;19.70;100.00
11880;BME280;5999;43.256;27.816;2022-09-09T01:41:02;100591.81;;;19.72;100.00
11880;BME280;5999;43.256;27.816;2022-09-09T01:43:29;100602.69;;;19.69;100.00
11880;BME280;5999;43.256;27.816;2022-09-09T01:45:58;100605.34;;;19.69;100.00
11880;BME280;5999;43.256;27.816;2022-09-09T01:48:25;100601.72;;;19.70;100.00
11880;BME280;5999;43.256;27.816;2022-09-09T01:50:52;100613.47;;;19.67;100.00
11880;BME280;5999;43.256;27.816;2022-09-09T01:53:21;100603.88;;;19.65;100.00
11880;BME280;5999;43.256;27.816;2022-09-09T01:55:56;100608.28;;;19.66;100.00
11880;BME280;5999;43.256;27.816;2022-09-09T01:58:34;100609.50;;;19.62;100.00
11880;BME280;5999;43.256;27.816;2022-09-09T02:01:09;100617.78;;;19.35;100.00
11880;BME280;5999;43.256;27.816;2022-09-09T02:03:41;100625.84;;;19.46;100.00
11880;BME280;5999;43.256;27.816;2022-09-09T02:06:17;100640.78;;;19.48;100.00
11880;BME280;5999;43.256;27.816;2022-09-09T02:08:52;100641.63;;;19.49;100.00
11880;BME280;5999;43.256;27.816;2022-09-09T02:11:21;100643.53;;;19.36;100.00
11880;BME280;5999;43.256;27.816;2022-09-09T02:13:51;100649.25;;;19.42;100.00
11880;BME280;5999;43.256;27.816;2022-09-09T02:16:24;100657.03;;;19.45;100.00
11880;BME280;5999;43.256;27.816;2022-09-09T02:18:57;100660.66;;;19.44;100.00
11880;BME280;5999;43.256;27.816;2022-09-09T02:21:28;100662.38;;;19.45;100.00
11880;BME280;5999;43.256;27.816;2022-09-09T02:23:58;100669.41;;;19.46;100.00
11880;BME280;5999;43.256;27.816;2022-09-09T02:26:26;100668.31;;;19.49;100.00
11880;BME280;5999;43.256;27.816;2022-09-09T02:28:57;100679.00;;;19.49;100.00
11880;BME280;5999;43.256;27.816;2022-09-09T02:31:26;100682.47;;;19.27;100.00
11880;BME280;5999;43.256;27.816;2022-09-09T02:33:55;100679.34;;;19.33;100.00
11880;BME280;5999;43.256;27.816;2022-09-09T02:36:26;100686.63;;;19.42;100.00
11880;BME280;5999;43.256;27.816;2022-09-09T02:38:55;100694.19;;;19.48;100.00
11880;BME280;5999;43.256;27.816;2022-09-09T02:41:26;100693.41;;;19.35;100.00
11880;BME280;5999;43.256;27.816;2022-09-09T02:43:55;100700.09;;;19.41;100.00
11880;BME280;5999;43.256;27.816;2022-09-09T02:46:32;100701.47;;;19.46;100.00
11880;BME280;5999;43.256;27.816;2022-09-09T02:49:09;100698.78;;;19.46;100.00
11880;BME280;5999;43.256;27.816;2022-09-09T02:51:40;100713.84;;;19.47;100.00
11880;BME280;5999;43.256;27.816;2022-09-09T02:54:15;100710.44;;;19.45;100.00
11880;BME280;5999;43.256;27.816;2022-09-09T02:56:47;100718.41;;;19.34;100.00
11880;BME280;5999;43.256;27.816;2022-09-09T02:59:17;100710.03;;;19.39;100.00
11880;BME280;5999;43.256;27.816;2022-09-09T03:01:44;100722.25;;;19.30;100.00
11880;BME280;5999;43.256;27.816;2022-09-09T03:04:11;100740.38;;;19.14;100.00
11880;BME280;5999;43.256;27.816;2022-09-09T03:06:38;100739.03;;;19.32;100.00
11880;BME280;5999;43.256;27.816;2022-09-09T03:09:05;100740.38;;;19.38;100.00
11880;BME280;5999;43.256;27.816;2022-09-09T03:11:32;100738.06;;;19.33;100.00
11880;BME280;5999;43.256;27.816;2022-09-09T03:13:58;100742.31;;;19.36;100.00
11880;BME280;5999;43.256;27.816;2022-09-09T03:16:26;100739.75;;;19.34;100.00
11880;BME280;5999;43.256;27.816;2022-09-09T03:18:53;100749.50;;;19.35;100.00
11880;BME280;5999;43.256;27.816;2022-09-09T03:21:20;100749.50;;;19.35;100.00
11880;BME280;5999;43.256;27.816;2022-09-09T03:23:46;100762.72;;;19.13;100.00
11880;BME280;5999;43.256;27.816;2022-09-09T03:26:13;100765.44;;;18.87;100.00
11880;BME280;5999;43.256;27.816;2022-09-09T03:28:41;100784.66;;;18.92;100.00
11880;BME280;5999;43.256;27.816;2022-09-09T03:31:08;100801.13;;;19.10;100.00
11880;BME280;5999;43.256;27.816;2022-09-09T03:33:37;100812.53;;;19.25;100.00
11880;BME280;5999;43.256;27.816;2022-09-09T03:36:04;100813.28;;;19.27;100.00
11880;BME280;5999;43.256;27.816;2022-09-09T03:38:31;100807.69;;;19.30;100.00
11880;BME280;5999;43.256;27.816;2022-09-09T03:40:58;100803.19;;;19.31;100.00
11880;BME280;5999;43.256;27.816;2022-09-09T03:43:27;100801.13;;;19.23;100.00
11880;BME280;5999;43.256;27.816;2022-09-09T03:45:55;100806.75;;;19.18;100.00
11880;BME280;5999;43.256;27.816;2022-09-09T03:48:23;100818.63;;;19.27;100.00
11880;BME280;5999;43.256;27.816;2022-09-09T03:50:52;100819.28;;;19.18;100.00
11880;BME280;5999;43.256;27.816;2022-09-09T03:53:23;100812.59;;;19.36;100.00
11880;BME280;5999;43.256;27.816;2022-09-09T03:55:52;100806.78;;;19.42;100.00
11880;BME280;5999;43.256;27.816;2022-09-09T03:58:21;100788.06;;;19.31;100.00
11880;BME280;5999;43.256;27.816;2022-09-09T04:00:54;100797.94;;;19.42;100.00
11880;BME280;5999;43.256;27.816;2022-09-09T04:03:21;100789.94;;;19.42;100.00
11880;BME280;5999;43.256;27.816;2022-09-09T04:05:51;100789.69;;;19.45;100.00
11880;BME280;5999;43.256;27.816;2022-09-09T04:08:18;100786.69;;;19.25;100.00
11880;BME280;5999;43.256;27.816;2022-09-09T04:10:45;100796.13;;;19.42;100.00
11880;BME280;5999;43.256;27.816;2022-09-09T04:13:13;100797.59;;;19.46;100.00
11880;BME280;5999;43.256;27.816;2022-09-09T04:15:42;100796.75;;;19.46;100.00
11880;BME280;5999;43.256;27.816;2022-09-09T04:18:09;100794.75;;;19.61;100.00
11880;BME280;5999;43.256;27.816;2022-09-09T04:20:36;100792.34;;;19.69;100.00
11880;BME280;5999;43.256;27.816;2022-09-09T04:23:04;100793.00;;;19.73;100.00
11880;BME280;5999;43.256;27.816;2022-09-09T04:25:32;100788.78;;;19.81;100.00
11880;BME280;5999;43.256;27.816;2022-09-09T04:28:00;100785.44;;;19.91;100.00
11880;BME280;5999;43.256;27.816;2022-09-09T04:30:27;100784.84;;;19.98;100.00
11880;BME280;5999;43.256;27.816;2022-09-09T04:32:54;100785.13;;;20.06;100.00
11880;BME280;5999;43.256;27.816;2022-09-09T04:35:20;100782.31;;;20.08;100.00
11880;BME280;5999;43.256;27.816;2022-09-09T04:37:47;100777.44;;;20.02;100.00
11880;BME280;5999;43.256;27.816;2022-09-09T04:40:15;100777.94;;;20.18;100.00
11880;BME280;5999;43.256;27.816;2022-09-09T04:42:42;100765.31;;;20.20;100.00
11880;BME280;5999;43.256;27.816;2022-09-09T04:45:10;100768.88;;;20.21;100.00
11880;BME280;5999;43.256;27.816;2022-09-09T04:47:37;100766.56;;;20.39;100.00
11880;BME280;5999;43.256;27.816;2022-09-09T04:50:04;100771.94;;;20.50;100.00
11880;BME280;5999;43.256;27.816;2022-09-09T04:52:33;100754.66;;;20.54;100.00
11880;BME280;5999;43.256;27.816;2022-09-09T04:55:00;100752.22;;;20.51;100.00
11880;BME280;5999;43.256;27.816;2022-09-09T04:57:27;100751.66;;;20.70;100.00
11880;BME280;5999;43.256;27.816;2022-09-09T04:59:55;100742.50;;;20.50;100.00
11880;BME280;5999;43.256;27.816;2022-09-09T05:02:22;100745.28;;;20.48;100.00
11880;BME280;5999;43.256;27.816;2022-09-09T05:04:48;100757.34;;;20.54;100.00
11880;BME280;5999;43.256;27.816;2022-09-09T05:07:16;100763.69;;;20.64;100.00
11880;BME280;5999;43.256;27.816;2022-09-09T05:09:43;100760.53;;;20.71;100.00
11880;BME280;5999;43.256;27.816;2022-09-09T05:12:10;100753.69;;;20.78;100.00
11880;BME280;5999;43.256;27.816;2022-09-09T05:14:38;100752.72;;;20.79;100.00
11880;BME280;5999;43.256;27.816;2022-09-09T05:17:05;100750.56;;;20.73;100.00
11880;BME280;5999;43.256;27.816;2022-09-09T05:19:32;100750.53;;;20.95;100.00
11880;BME280;5999;43.256;27.816;2022-09-09T05:21:58;100741.25;;;20.99;100.00
11880;BME280;5999;43.256;27.816;2022-09-09T05:24:27;100742.59;;;21.05;100.00
11880;BME280;5999;43.256;27.816;2022-09-09T05:26:54;100733.44;;;21.19;100.00
11880;BME280;5999;43.256;27.816;2022-09-09T05:29:26;100727.91;;;21.32;100.00
11880;BME280;5999;43.256;27.816;2022-09-09T05:31:54;100722.16;;;21.36;100.00
11880;BME280;5999;43.256;27.816;2022-09-09T05:34:21;100720.47;;;21.35;100.00
11880;BME280;5999;43.256;27.816;2022-09-09T05:36:48;100723.72;;;21.50;100.00
11880;BME280;5999;43.256;27.816;2022-09-09T05:39:15;100716.22;;;21.65;100.00
11880;BME280;5999;43.256;27.816;2022-09-09T05:41:42;100708.50;;;21.51;100.00
11880;BME280;5999;43.256;27.816;2022-09-09T05:44:09;100704.97;;;21.71;100.00
11880;BME280;5999;43.256;27.816;2022-09-09T05:46:36;100698.50;;;21.95;100.00
11880;BME280;5999;43.256;27.816;2022-09-09T05:49:04;100697.59;;;21.84;100.00
11880;BME280;5999;43.256;27.816;2022-09-09T05:51:31;100699.72;;;22.12;100.00
11880;BME280;5999;43.256;27.816;2022-09-09T05:53:58;100702.53;;;22.10;100.00
11880;BME280;5999;43.256;27.816;2022-09-09T05:56:27;100695.31;;;22.01;100.00
11880;BME280;5999;43.256;27.816;2022-09-09T05:58:54;100708.66;;;22.22;100.00
11880;BME280;5999;43.256;27.816;2022-09-09T06:01:23;100699.31;;;22.16;100.00
11880;BME280;5999;43.256;27.816;2022-09-09T06:03:51;100706.13;;;22.51;100.00
11880;BME280;5999;43.256;27.816;2022-09-09T06:06:20;100699.41;;;22.66;100.00
11880;BME280;5999;43.256;27.816;2022-09-09T06:08:49;100692.53;;;22.43;100.00
11880;BME280;5999;43.256;27.816;2022-09-09T06:11:19;100684.91;;;22.98;100.00
11880;BME280;5999;43.256;27.816;2022-09-09T06:13:47;100660.03;;;22.96;100.00
11880;BME280;5999;43.256;27.816;2022-09-09T06:16:15;100654.34;;;22.80;100.00
11880;BME280;5999;43.256;27.816;2022-09-09T06:18:43;100660.84;;;22.67;100.00
11880;BME280;5999;43.256;27.816;2022-09-09T06:21:14;100639.31;;;23.18;100.00
11880;BME280;5999;43.256;27.816;2022-09-09T06:23:42;100626.13;;;23.24;100.00
11880;BME280;5999;43.256;27.816;2022-09-09T06:26:12;100643.97;;;23.25;100.00
11880;BME280;5999;43.256;27.816;2022-09-09T06:28:39;100629.47;;;23.65;100.00
11880;BME280;5999;43.256;27.816;2022-09-09T06:31:10;100628.25;;;23.21;100.00
11880;BME280;5999;43.256;27.816;2022-09-09T06:33:38;100615.41;;;23.34;100.00
11880;BME280;5999;43.256;27.816;2022-09-09T06:36:10;100611.09;;;23.61;100.00
11880;BME280;5999;43.256;27.816;2022-09-09T06:38:37;100605.56;;;23.72;100.00
11880;BME280;5999;43.256;27.816;2022-09-09T06:41:05;100602.31;;;23.78;100.00
11880;BME280;5999;43.256;27.816;2022-09-09T06:43:32;100573.25;;;24.65;100.00
11880;BME280;5999;43.256;27.816;2022-09-09T06:46:00;100553.34;;;24.76;100.00
11880;BME280;5999;43.256;27.816;2022-09-09T06:48:27;100522.59;;;25.49;100.00
11880;BME280;5999;43.256;27.816;2022-09-09T06:51:02;100543.16;;;24.34;100.00
11880;BME280;5999;43.256;27.816;2022-09-09T06:53:29;100522.63;;;24.86;100.00
11880;BME280;5999;43.256;27.816;2022-09-09T06:55:56;100516.66;;;24.57;100.00
11880;BME280;5999;43.256;27.816;2022-09-09T06:58:24;100512.25;;;24.74;100.00
11880;BME280;5999;43.256;27.816;2022-09-09T07:00:50;100479.00;;;24.47;100.00
11880;BME280;5999;43.256;27.816;2022-09-09T07:03:17;100470.22;;;24.99;100.00
11880;BME280;5999;43.256;27.816;2022-09-09T07:05:53;100462.88;;;24.65;100.00
11880;BME280;5999;43.256;27.816;2022-09-09T07:08:20;100456.56;;;25.00;100.00
11880;BME280;5999;43.256;27.816;2022-09-09T07:10:46;100453.63;;;24.67;100.00
11880;BME280;5999;43.256;27.816;2022-09-09T07:13:13;100450.44;;;25.42;100.00
11880;BME280;5999;43.256;27.816;2022-09-09T07:15:42;100457.84;;;25.40;100.00
11880;BME280;5999;43.256;27.816;2022-09-09T07:18:09;100454.41;;;25.04;100.00
11880;BME280;5999;43.256;27.816;2022-09-09T07:20:36;100451.09;;;25.36;100.00
11880;BME280;5999;43.256;27.816;2022-09-09T07:23:03;100459.63;;;25.66;100.00
11880;BME280;5999;43.256;27.816;2022-09-09T07:25:30;100480.09;;;25.42;100.00
11880;BME280;5999;43.256;27.816;2022-09-09T07:27:57;100465.19;;;25.30;100.00
11880;BME280;5999;43.256;27.816;2022-09-09T07:30:24;100467.56;;;25.33;100.00
11880;BME280;5999;43.256;27.816;2022-09-09T07:32:52;100471.63;;;25.37;100.00
11880;BME280;5999;43.256;27.816;2022-09-09T07:35:19;100481.69;;;25.01;100.00
11880;BME280;5999;43.256;27.816;2022-09-09T07:37:46;100468.13;;;25.88;100.00
11880;BME280;5999;43.256;27.816;2022-09-09T07:40:13;100483.69;;;25.25;100.00
11880;BME280;5999;43.256;27.816;2022-09-09T07:42:40;100480.63;;;25.46;100.00
11880;BME280;5999;43.256;27.816;2022-09-09T07:45:07;100467.78;;;25.82;100.00
11880;BME280;5999;43.256;27.816;2022-09-09T07:47:34;100446.94;;;26.01;100.00
11880;BME280;5999;43.256;27.816;2022-09-09T07:50:02;100469.19;;;25.95;100.00
11880;BME280;5999;43.256;27.816;2022-09-09T07:52:29;100436.84;;;26.03;84.34
11880;BME280;5999;43.256;27.816;2022-09-09T07:54:56;100445.31;;;26.16;71.31
11880;BME280;5999;43.256;27.816;2022-09-09T07:57:23;100451.50;;;25.58;72.15
11880;BME280;5999;43.256;27.816;2022-09-09T07:59:50;100431.03;;;25.81;68.53
11880;BME280;5999;43.256;27.816;2022-09-09T08:02:17;100442.56;;;26.00;74.29
11880;BME280;5999;43.256;27.816;2022-09-09T08:04:44;100450.00;;;25.98;79.07
11880;BME280;5999;43.256;27.816;2022-09-09T08:07:13;100438.25;;;26.48;79.39
11880;BME280;5999;43.256;27.816;2022-09-09T08:09:40;100442.25;;;27.26;73.22
11880;BME280;5999;43.256;27.816;2022-09-09T08:12:07;100441.97;;;26.63;70.10
11880;BME280;5999;43.256;27.816;2022-09-09T08:14:35;100441.97;;;26.72;66.34
11880;BME280;5999;43.256;27.816;2022-09-09T08:17:02;100424.44;;;26.59;67.86
11880;BME280;5999;43.256;27.816;2022-09-09T08:19:29;100418.00;;;26.77;71.92
11880;BME280;5999;43.256;27.816;2022-09-09T08:21:56;100421.38;;;26.79;73.53
11880;BME280;5999;43.256;27.816;2022-09-09T08:24:23;100416.13;;;26.85;64.02
11880;BME280;5999;43.256;27.816;2022-09-09T08:26:50;100408.13;;;27.09;59.92
11880;BME280;5999;43.256;27.816;2022-09-09T08:29:17;100399.91;;;26.94;63.70
11880;BME280;5999;43.256;27.816;2022-09-09T08:31:47;100403.75;;;27.08;62.93
11880;BME280;5999;43.256;27.816;2022-09-09T08:34:14;100391.16;;;26.75;65.80
11880;BME280;5999;43.256;27.816;2022-09-09T08:36:43;100393.81;;;27.00;71.70
11880;BME280;5999;43.256;27.816;2022-09-09T08:39:12;100404.50;;;26.77;72.19
11880;BME280;5999;43.256;27.816;2022-09-09T08:44:51;100398.09;;;26.70;79.47
11880;BME280;5999;43.256;27.816;2022-09-09T08:47:27;100389.25;;;27.00;78.64
11880;BME280;5999;43.256;27.816;2022-09-09T08:50:19;100383.50;;;27.03;80.92
11880;BME280;5999;43.256;27.816;2022-09-09T08:52:54;100395.72;;;26.83;83.95
11880;BME280;5999;43.256;27.816;2022-09-09T08:55:27;100385.81;;;27.15;82.54
11880;BME280;5999;43.256;27.816;2022-09-09T08:58:09;100387.97;;;27.28;80.95
11880;BME280;5999;43.256;27.816;2022-09-09T09:00:47;100383.59;;;26.71;85.78
11880;BME280;5999;43.256;27.816;2022-09-09T09:03:25;100375.84;;;27.15;86.83
11880;BME280;5999;43.256;27.816;2022-09-09T09:06:01;100384.44;;;27.27;86.37
11880;BME280;5999;43.256;27.816;2022-09-09T09:08:38;100373.38;;;26.97;88.39
11880;BME280;5999;43.256;27.816;2022-09-09T09:11:07;100382.13;;;27.08;90.22
11880;BME280;5999;43.256;27.816;2022-09-09T09:13:41;100372.03;;;27.01;91.10
11880;BME280;5999;43.256;27.816;2022-09-09T09:16:19;100385.13;;;27.21;97.30
11880;BME280;5999;43.256;27.816;2022-09-09T09:18:49;100387.78;;;26.73;100.00
11880;BME280;5999;43.256;27.816;2022-09-09T09:21:21;100385.03;;;26.98;100.00
11880;BME280;5999;43.256;27.816;2022-09-09T09:23:55;100378.94;;;27.04;100.00
11880;BME280;5999;43.256;27.816;2022-09-09T09:26:25;100384.22;;;26.89;100.00
11880;BME280;5999;43.256;27.816;2022-09-09T09:28:56;100387.22;;;27.02;100.00
11880;BME280;5999;43.256;27.816;2022-09-09T09:31:25;100391.84;;;27.33;100.00
11880;BME280;5999;43.256;27.816;2022-09-09T09:33:54;100391.47;;;27.44;100.00
11880;BME280;5999;43.256;27.816;2022-09-09T09:36:24;100398.31;;;27.24;100.00
11880;BME280;5999;43.256;27.816;2022-09-09T09:39:00;100395.75;;;27.31;100.00
11880;BME280;5999;43.256;27.816;2022-09-09T09:41:32;100403.19;;;27.29;100.00
11880;BME280;5999;43.256;27.816;2022-09-09T09:44:02;100417.50;;;27.45;99.54
11880;BME280;5999;43.256;27.816;2022-09-09T09:46:29;100405.72;;;27.38;93.81
11880;BME280;5999;43.256;27.816;2022-09-09T09:49:01;100394.03;;;26.65;93.46
11880;BME280;5999;43.256;27.816;2022-09-09T09:51:30;100366.88;;;27.62;91.26
11880;BME280;5999;43.256;27.816;2022-09-09T09:54:09;100374.03;;;28.10;90.70
11880;BME280;5999;43.256;27.816;2022-09-09T09:56:40;100372.38;;;26.90;96.57
11880;BME280;5999;43.256;27.816;2022-09-09T09:59:21;100362.06;;;26.94;96.45
11880;BME280;5999;43.256;27.816;2022-09-09T10:01:49;100370.81;;;27.04;98.20
11880;BME280;5999;43.256;27.816;2022-09-09T10:04:18;100364.25;;;26.98;95.55
11880;BME280;5999;43.256;27.816;2022-09-09T10:06:47;100372.63;;;27.20;95.48
11880;BME280;5999;43.256;27.816;2022-09-09T10:09:25;100373.28;;;27.30;88.66
11880;BME280;5999;43.256;27.816;2022-09-09T10:11:58;100379.59;;;27.06;93.83
11880;BME280;5999;43.256;27.816;2022-09-09T10:14:35;100375.41;;;26.95;100.00
11880;BME280;5999;43.256;27.816;2022-09-09T10:17:16;100371.63;;;27.92;99.08
11880;BME280;5999;43.256;27.816;2022-09-09T10:19:55;100354.25;;;27.55;93.54
11880;BME280;5999;43.256;27.816;2022-09-09T10:22:26;100367.22;;;27.20;92.97
11880;BME280;5999;43.256;27.816;2022-09-09T10:25:22;100377.00;;;27.29;100.00
11880;BME280;5999;43.256;27.816;2022-09-09T10:28:07;100358.38;;;27.97;97.17
11880;BME280;5999;43.256;27.816;2022-09-09T10:30:46;100357.50;;;27.73;100.00
11880;BME280;5999;43.256;27.816;2022-09-09T10:33:24;100370.72;;;27.68;99.51
11880;BME280;5999;43.256;27.816;2022-09-09T10:36:02;100372.66;;;27.12;98.80
11880;BME280;5999;43.256;27.816;2022-09-09T10:38:39;100360.44;;;27.63;97.39
11880;BME280;5999;43.256;27.816;2022-09-09T10:41:16;100364.34;;;27.61;99.66
11880;BME280;5999;43.256;27.816;2022-09-09T10:44:06;100362.31;;;27.63;100.00
11880;BME280;5999;43.256;27.816;2022-09-09T10:46:50;100366.09;;;27.45;99.89
11880;BME280;5999;43.256;27.816;2022-09-09T10:49:28;100346.44;;;27.91;100.00
11880;BME280;5999;43.256;27.816;2022-09-09T10:52:04;100360.00;;;27.52;100.00
11880;BME280;5999;43.256;27.816;2022-09-09T10:54:45;100369.72;;;26.65;100.00
11880;BME280;5999;43.256;27.816;2022-09-09T10:57:25;100370.56;;;27.38;100.00
11880;BME280;5999;43.256;27.816;2022-09-09T10:59:56;100368.03;;;26.73;100.00
11880;BME280;5999;43.256;27.816;2022-09-09T11:02:28;100365.31;;;27.68;100.00
11880;BME280;5999;43.256;27.816;2022-09-09T11:04:59;100364.03;;;27.24;100.00
11880;BME280;5999;43.256;27.816;2022-09-09T11:07:33;100365.59;;;27.02;100.00
11880;BME280;5999;43.256;27.816;2022-09-09T11:10:05;100372.78;;;26.71;100.00
11880;BME280;5999;43.256;27.816;2022-09-09T11:12:36;100358.75;;;26.67;100.00
11880;BME280;5999;43.256;27.816;2022-09-09T11:15:09;100355.06;;;27.16;100.00
11880;BME280;5999;43.256;27.816;2022-09-09T11:17:45;100367.81;;;27.47;100.00
11880;BME280;5999;43.256;27.816;2022-09-09T11:20:14;100358.75;;;27.94;100.00
11880;BME280;5999;43.256;27.816;2022-09-09T11:22:46;100365.78;;;27.49;100.00
11880;BME280;5999;43.256;27.816;2022-09-09T11:25:17;100365.53;;;26.63;100.00
11880;BME280;5999;43.256;27.816;2022-09-09T11:28:03;100352.84;;;26.39;100.00
11880;BME280;5999;43.256;27.816;2022-09-09T11:30:39;100358.59;;;26.69;100.00
11880;BME280;5999;43.256;27.816;2022-09-09T11:33:46;100341.72;;;26.75;100.00
11880;BME280;5999;43.256;27.816;2022-09-09T11:36:36;100355.91;;;26.52;100.00
11880;BME280;5999;43.256;27.816;2022-09-09T11:39:24;100352.88;;;26.06;100.00
11880;BME280;5999;43.256;27.816;2022-09-09T11:42:06;100371.06;;;26.45;100.00
11880;BME280;5999;43.256;27.816;2022-09-09T11:44:34;100356.38;;;26.48;100.00
11880;BME280;5999;43.256;27.816;2022-09-09T11:47:01;100347.13;;;26.09;100.00
11880;BME280;5999;43.256;27.816;2022-09-09T11:49:39;100351.53;;;26.02;100.00
11880;BME280;5999;43.256;27.816;2022-09-09T11:52:11;100343.75;;;26.15;100.00
11880;BME280;5999;43.256;27.816;2022-09-09T11:54:47;100352.09;;;25.63;100.00
11880;BME280;5999;43.256;27.816;2022-09-09T11:57:24;100341.41;;;25.96;100.00
11880;BME280;5999;43.256;27.816;2022-09-09T11:59:52;100336.94;;;25.70;100.00
11880;BME280;5999;43.256;27.816;2022-09-09T12:02:23;100331.59;;;25.95;100.00
11880;BME280;5999;43.256;27.816;2022-09-09T12:04:57;100349.84;;;26.25;100.00
11880;BME280;5999;43.256;27.816;2022-09-09T12:07:34;100351.84;;;26.23;100.00
11880;BME280;5999;43.256;27.816;2022-09-09T12:10:05;100335.00;;;26.38;100.00
11880;BME280;5999;43.256;27.816;2022-09-09T12:12:45;100315.91;;;26.39;100.00
11880;BME280;5999;43.256;27.816;2022-09-09T12:15:25;100339.38;;;25.98;100.00
11880;BME280;5999;43.256;27.816;2022-09-09T12:17:55;100314.63;;;25.43;100.00
11880;BME280;5999;43.256;27.816;2022-09-09T12:20:26;100313.16;;;25.65;100.00
11880;BME280;5999;43.256;27.816;2022-09-09T12:23:05;100307.63;;;25.67;100.00
11880;BME280;5999;43.256;27.816;2022-09-09T12:25:54;100325.72;;;25.99;100.00
11880;BME280;5999;43.256;27.816;2022-09-09T12:28:26;100325.88;;;25.90;100.00
11880;BME280;5999;43.256;27.816;2022-09-09T12:31:02;100331.78;;;25.93;100.00
11880;BME280;5999;43.256;27.816;2022-09-09T12:33:35;100316.22;;;25.62;100.00
11880;BME280;5999;43.256;27.816;2022-09-09T12:36:05;100319.81;;;26.20;100.00
11880;BME280;5999;43.256;27.816;2022-09-09T12:38:38;100336.28;;;25.76;100.00
11880;BME280;5999;43.256;27.816;2022-09-09T12:41:06;100330.88;;;25.76;100.00
11880;BME280;5999;43.256;27.816;2022-09-09T12:43:33;100317.09;;;26.20;100.00
11880;BME280;5999;43.256;27.816;2022-09-09T12:46:02;100328.25;;;26.34;100.00
11880;BME280;5999;43.256;27.816;2022-09-09T12:48:33;100315.09;;;25.90;100.00
11880;BME280;5999;43.256;27.816;2022-09-09T12:51:16;100317.44;;;26.01;100.00
11880;BME280;5999;43.256;27.816;2022-09-09T12:53:45;100321.66;;;26.20;100.00
11880;BME280;5999;43.256;27.816;2022-09-09T12:56:19;100321.78;;;25.85;100.00
11880;BME280;5999;43.256;27.816;2022-09-09T12:58:49;100314.56;;;26.11;100.00
11880;BME280;5999;43.256;27.816;2022-09-09T13:01:22;100313.47;;;26.85;100.00
11880;BME280;5999;43.256;27.816;2022-09-09T13:03:49;100314.22;;;26.38;100.00
11880;BME280;5999;43.256;27.816;2022-09-09T13:06:21;100294.16;;;25.83;100.00
11880;BME280;5999;43.256;27.816;2022-09-09T13:08:49;100306.59;;;25.76;100.00